Terminal Aerodrome Forecast
Issued by NWS

Home | Current Version | Previous Version | Text Only | Print | Product List | Glossary On
Versions: 1 2 3 4 5 6 7 8 9 10 11 12 13 14 15 16 17 18 19
000
FTUS43 KICT 030500
TAFRSL
TAF
KRSL 030520Z 0306/0406 14008KT P6SM VCTS BKN060CB OVC080
     FM030800 14010KT P6SM SCT100
     FM031200 16011KT P6SM SCT015 SCT100
     FM031500 19020G30KT P6SM FEW150
     FM040100 18015KT P6SM SKC=

USA.gov is the U.S. government's official web portal to all federal, state and local government web resources and services.